createdAt,value
2019-04-19T18:35:16.247Z,999.71
2019-04-19T18:36:10.675Z,999.76
2019-04-19T18:37:08.896Z,999.76
2019-04-19T18:38:14.482Z,999.74
2019-04-19T18:39:08.541Z,999.81
2019-04-19T18:40:09.285Z,999.81
2019-04-19T18:41:09.211Z,999.8
2019-04-19T18:42:08.092Z,999.79
2019-04-19T18:43:20.980Z,999.8
2019-04-19T18:44:38.827Z,999.84
2019-04-19T18:45:30.716Z,999.76
2019-04-19T18:46:28.977Z,999.79
2019-04-19T18:47:29.140Z,999.85
2019-04-19T18:48:29.425Z,999.83
2019-04-19T18:49:29.581Z,999.86
2019-04-19T18:50:32.587Z,999.82
2019-04-19T18:51:36.161Z,999.85
2019-04-19T18:52:39.239Z,999.9
2019-04-19T18:53:44.969Z,999.87
2019-04-19T18:54:54.686Z,999.91
2019-04-19T18:55:48.914Z,999.98
2019-04-19T18:56:48.644Z,999.97
2019-04-19T18:57:48.348Z,999.95
2019-04-19T18:58:45.894Z,999.95
2019-04-19T18:59:49.639Z,999.96
2019-04-19T19:00:48.353Z,999.99
2019-04-19T19:01:46.360Z,1000.02
2019-04-19T19:02:52.804Z,1000.01
2019-04-19T19:03:46.921Z,1000
2019-04-19T19:04:46.692Z,1000.04
2019-04-19T19:05:52.859Z,1000.08
2019-04-19T19:06:47.078Z,1000.06
2019-04-19T19:07:49.094Z,1000.06
2019-04-19T19:08:52.500Z,1000.07
2019-04-19T19:09:49.983Z,1000.09
2019-04-19T19:10:48.894Z,1000.03
2019-04-19T19:11:46.719Z,1000.08
2019-04-19T19:12:48.115Z,1000.1
2019-04-19T19:13:45.904Z,1000.12
2019-04-19T19:14:51.140Z,1000.17
2019-04-19T19:15:49.835Z,1000.13
2019-04-19T19:16:49.756Z,1000.21
2019-04-19T19:17:50.733Z,1000.16
2019-04-19T19:18:50.666Z,1000.15
2019-04-19T19:19:46.082Z,1000.16
2019-04-19T19:20:49.404Z,1000.18
2019-04-19T19:21:48.612Z,1000.2
2019-04-19T19:23:02.306Z,1000.19
2019-04-19T19:25:02.934Z,1000.21
2019-04-19T19:26:21.270Z,1000.11
2019-04-19T19:27:24.856Z,1000.2
2019-04-19T19:28:21.733Z,1000.19
2019-04-19T19:29:20.371Z,1000.18
2019-04-19T19:30:20.634Z,1000.21
2019-04-19T19:31:20.800Z,1000.22
2019-04-19T19:32:20.839Z,1000.17
2019-04-19T19:33:23.280Z,1000.2
2019-04-19T19:36:01.309Z,1000.21
2019-04-19T19:41:15.955Z,1000.25
2019-04-19T19:43:41.985Z,1000.26
2019-04-19T19:44:55.499Z,1000.23
2019-04-19T19:47:10.162Z,1000.23
2019-04-19T19:50:00.616Z,1000.25
2019-04-19T19:52:02.661Z,1000.26
2019-04-19T19:55:02.505Z,1000.31
2019-04-19T19:57:21.963Z,1000.32
2019-04-19T19:58:34.689Z,1000.33
2019-04-19T19:59:41.832Z,1000.32
2019-04-19T20:01:20.650Z,1000.38
2019-04-19T20:02:45.232Z,1000.4
2019-04-19T20:03:48.768Z,1000.39
2019-04-19T20:04:46.304Z,1000.35
2019-04-19T20:05:45.984Z,1000.38
2019-04-19T20:06:53.464Z,1000.39
2019-04-19T20:07:48.598Z,1000.38
2019-04-19T20:08:47.321Z,1000.39
2019-04-19T20:09:49.950Z,1000.35
2019-04-19T20:10:47.657Z,1000.36
2019-04-19T20:11:45.766Z,1000.38
2019-04-19T20:12:50.644Z,1000.4
2019-04-19T20:13:49.413Z,1000.41
2019-04-19T20:14:45.537Z,1000.43
2019-04-19T20:15:47.456Z,1000.43
2019-04-19T20:16:45.547Z,1000.46
2019-04-19T20:17:50.837Z,1000.48
2019-04-19T20:18:49.131Z,1000.5
2019-04-19T20:19:48.788Z,1000.54
2019-04-19T20:20:46.110Z,1000.48
2019-04-19T20:21:51.917Z,1000.5
2019-04-19T20:22:47.517Z,1000.48
2019-04-19T20:23:58.738Z,1000.53
2019-04-19T20:25:32.368Z,1000.46
2019-04-19T20:26:38.677Z,1000.51
2019-04-19T20:27:43.262Z,1000.48
2019-04-19T20:28:37.741Z,1000.5
2019-04-19T20:29:35.799Z,1000.5
2019-04-19T20:30:37.696Z,1000.49
2019-04-19T20:31:38.990Z,1000.5
2019-04-19T20:32:36.706Z,1000.49
2019-04-19T20:33:44.903Z,1000.48
2019-04-19T20:34:37.228Z,1000.48
2019-04-19T20:35:36.730Z,1000.45
2019-04-19T20:36:38.798Z,1000.45
2019-04-19T20:37:35.749Z,1000.47
2019-04-19T20:38:42.597Z,1000.45
2019-04-19T20:39:37.994Z,1000.43
2019-04-19T20:40:38.855Z,1000.45
2019-04-19T20:41:40.120Z,1000.41
2019-04-19T20:42:57.455Z,1000.44
2019-04-19T20:44:46.232Z,1000.45
2019-04-19T20:45:50.557Z,1000.45
2019-04-19T20:46:46.303Z,1000.45
2019-04-19T20:47:49.938Z,1000.46
2019-04-19T20:48:53.915Z,1000.44
2019-04-19T20:49:47.643Z,1000.48
2019-04-19T20:50:54.824Z,1000.48
2019-04-19T20:52:10.017Z,1000.45
2019-04-19T20:53:32.162Z,1000.46
2019-04-19T20:55:41.790Z,1000.5
2019-04-19T20:57:52.031Z,1000.5
2019-04-19T20:58:57.439Z,1000.49
2019-04-19T20:59:56.082Z,1000.5
2019-04-19T21:00:52.748Z,1000.5
2019-04-19T21:01:52.837Z,1000.49
2019-04-19T21:02:54.063Z,1000.48
2019-04-19T21:03:53.089Z,1000.51
2019-04-19T21:04:57.589Z,1000.48
2019-04-19T21:05:54.438Z,1000.49
2019-04-19T21:06:53.814Z,1000.52
2019-04-19T21:07:56.053Z,1000.54
2019-04-19T21:08:53.332Z,1000.53
2019-04-19T21:09:53.818Z,1000.51
2019-04-19T21:10:57.712Z,1000.5
2019-04-19T21:11:53.031Z,1000.55
2019-04-19T21:12:55.454Z,1000.61
2019-04-19T21:13:57.091Z,1000.55
2019-04-19T21:14:52.739Z,1000.55
2019-04-19T21:15:54.212Z,1000.55
2019-04-19T21:16:57.523Z,1000.6
2019-04-19T21:17:53.191Z,1000.6
2019-04-19T21:18:56.704Z,1000.59
2019-04-19T21:19:53.836Z,1000.58
2019-04-19T21:20:54.728Z,1000.61
2019-04-19T21:21:55.538Z,1000.57
2019-04-19T21:22:52.717Z,1000.58
2019-04-19T21:24:00.418Z,1000.6
2019-04-19T21:25:05.555Z,1000.6
2019-04-19T21:25:59.490Z,1000.65
2019-04-19T21:27:03.437Z,1000.61
2019-04-19T21:28:00.196Z,1000.65
2019-04-19T21:28:57.911Z,1000.64
2019-04-19T21:30:01.199Z,1000.58
2019-04-19T21:30:59.838Z,1000.67
2019-04-19T21:31:59.174Z,1000.63
2019-04-19T21:33:04.266Z,1000.64
2019-04-19T21:33:59.395Z,1000.63
2019-04-19T21:35:00.914Z,1000.63
2019-04-19T21:36:02.237Z,1000.61
2019-04-19T21:37:01.175Z,1000.63
2019-04-19T21:37:59.053Z,1000.6
2019-04-19T21:39:02.674Z,1000.61
2019-04-19T21:39:57.802Z,1000.57
2019-04-19T21:40:57.724Z,1000.6
2019-04-19T21:42:00.398Z,1000.65
2019-04-19T21:42:59.641Z,1000.63
2019-04-19T21:43:57.133Z,1000.6
2019-04-19T21:45:01.293Z,1000.6
2019-04-19T21:45:57.346Z,1000.6
2019-04-19T21:46:59.411Z,1000.65
2019-04-19T21:47:58.368Z,1000.62
2019-04-19T21:48:57.114Z,1000.64
2019-04-19T21:49:59.938Z,1000.65
2019-04-19T21:50:57.618Z,1000.67
2019-04-19T21:52:03.799Z,1000.64
2019-04-19T21:53:01.993Z,1000.7
2019-04-19T21:53:57.112Z,1000.66
2019-04-19T21:55:12.191Z,1000.7
2019-04-19T21:56:05.533Z,1000.69
2019-04-19T21:57:00.456Z,1000.71
2019-04-19T21:58:06.875Z,1000.66
2019-04-19T21:59:01.158Z,1000.63
2019-04-19T22:00:03.467Z,1000.65
2019-04-19T22:01:05.680Z,1000.69
2019-04-19T22:02:01.274Z,1000.68
2019-04-19T22:03:00.057Z,1000.65
2019-04-19T22:04:03.366Z,1000.69
2019-04-19T22:05:01.386Z,1000.7
2019-04-19T22:06:01.632Z,1000.72
2019-04-19T22:07:04.318Z,1000.74
2019-04-19T22:08:00.340Z,1000.7
2019-04-19T22:09:05.493Z,1000.73
2019-04-19T22:10:01.058Z,1000.72
2019-04-19T22:11:00.477Z,1000.72
2019-04-19T22:12:00.614Z,1000.74
2019-04-19T22:13:00.147Z,1000.72
2019-04-19T22:14:00.349Z,1000.72
2019-04-19T22:15:05.513Z,1000.71
2019-04-19T22:16:01.711Z,1000.74
2019-04-19T22:17:00.973Z,1000.74
2019-04-19T22:18:03.030Z,1000.73
2019-04-19T22:19:01.381Z,1000.76
2019-04-19T22:20:06.998Z,1000.75
2019-04-19T22:21:02.853Z,1000.74
2019-04-19T22:22:00.864Z,1000.76
2019-04-19T22:23:03.922Z,1000.73
2019-04-19T22:24:00.477Z,1000.75
2019-04-19T22:25:06.454Z,1000.78
2019-04-19T22:26:24.726Z,1000.77
2019-04-19T22:27:16.038Z,1000.77
2019-04-19T22:28:17.308Z,1000.79
2019-04-19T22:29:16.032Z,1000.77
2019-04-19T22:30:16.029Z,1000.78
2019-04-19T22:31:20.683Z,1000.75
2019-04-19T22:32:18.598Z,1000.78
2019-04-19T22:33:16.440Z,1000.78
2019-04-19T22:34:16.640Z,1000.83
2019-04-19T22:35:18.949Z,1000.83
2019-04-19T22:36:17.424Z,1000.78
2019-04-19T22:37:21.479Z,1000.8
2019-04-19T22:38:19.194Z,1000.82
2019-04-19T22:39:16.005Z,1000.82
2019-04-19T22:40:16.498Z,1000.82
2019-04-19T22:41:18.937Z,1000.81
2019-04-19T22:42:16.955Z,1000.82
2019-04-19T22:43:16.364Z,1000.82
2019-04-19T22:44:16.609Z,1000.82
2019-04-19T22:45:20.507Z,1000.85
2019-04-19T22:46:17.134Z,1000.81
2019-04-19T22:47:21.466Z,1000.83
2019-04-19T22:48:18.559Z,1000.85
2019-04-19T22:49:16.528Z,1000.86
2019-04-19T22:50:20.777Z,1000.87
2019-04-19T22:51:18.450Z,1000.88
2019-04-19T22:52:16.464Z,1000.85
2019-04-19T22:53:17.155Z,1000.91
2019-04-19T22:54:16.821Z,1000.9
2019-04-19T22:55:18.054Z,1000.86
2019-04-19T22:56:24.473Z,1000.9
2019-04-19T22:57:22.044Z,1000.89
2019-04-19T22:58:23.094Z,1000.86
2019-04-19T22:59:20.302Z,1000.89
2019-04-19T23:00:19.067Z,1000.91
2019-04-19T23:01:20.319Z,1000.9
2019-04-19T23:02:18.643Z,1000.89
2019-04-19T23:03:22.870Z,1000.94
2019-04-19T23:04:22.215Z,1000.9
2019-04-19T23:05:17.982Z,1000.91
2019-04-19T23:06:19.446Z,1000.95
2019-04-19T23:07:18.710Z,1000.93
2019-04-19T23:08:27.108Z,1000.93
2019-04-19T23:09:21.213Z,1000.9
2019-04-19T23:10:18.237Z,1000.91
2019-04-19T23:11:19.386Z,1000.91
2019-04-19T23:12:18.477Z,1000.89
2019-04-19T23:13:17.936Z,1000.85
2019-04-19T23:14:19.796Z,1000.91
2019-04-19T23:15:21.886Z,1000.92
2019-04-19T23:16:18.208Z,1000.9
2019-04-19T23:17:24.321Z,1000.92
2019-04-19T23:18:21.293Z,1000.93
2019-04-19T23:19:19.202Z,1000.89
2019-04-19T23:20:20.292Z,1000.93
2019-04-19T23:21:21.296Z,1000.91
2019-04-19T23:22:18.395Z,1000.92
2019-04-19T23:23:23.046Z,1000.92
2019-04-19T23:24:19.382Z,1000.94
2019-04-19T23:25:20.058Z,1000.98
2019-04-19T23:26:42.414Z,1000.96
2019-04-19T23:27:57.495Z,1001.04
2019-04-19T23:28:54.878Z,1001
2019-04-19T23:29:53.816Z,1001.07
2019-04-19T23:30:59.235Z,1001.08
2019-04-19T23:31:54.690Z,1001.13
2019-04-19T23:32:54.328Z,1001.17
2019-04-19T23:34:00.491Z,1001.12
2019-04-19T23:34:55.440Z,1001.09
2019-04-19T23:35:53.797Z,1001.09
2019-04-19T23:36:59.622Z,1001.05
2019-04-19T23:37:53.796Z,1001.07
2019-04-19T23:38:59.484Z,1001.07
2019-04-19T23:39:54.860Z,1001.07
2019-04-19T23:40:55.073Z,1001.07
2019-04-19T23:41:53.774Z,1001
2019-04-19T23:42:55.325Z,1000.98
2019-04-19T23:43:53.767Z,1000.94
2019-04-19T23:44:56.721Z,1001
2019-04-19T23:45:54.133Z,1000.98
2019-04-19T23:46:58.594Z,1000.97
2019-04-19T23:47:54.072Z,1000.95
2019-04-19T23:49:00.218Z,1000.95
2019-04-19T23:49:54.468Z,1000.95
2019-04-19T23:50:54.656Z,1000.95
2019-04-19T23:51:54.864Z,1000.94
2019-04-19T23:52:57.167Z,1000.94
2019-04-19T23:53:54.310Z,1000.95
2019-04-19T23:54:54.538Z,1000.97
2019-04-19T23:55:54.160Z,1000.96
2019-04-19T23:57:04.228Z,1000.97
2019-04-19T23:57:56.009Z,1001.01
2019-04-19T23:58:54.318Z,1000.95
2019-04-19T23:59:59.521Z,1000.99
